sensor_id;sensor_type;location;lat;lon;timestamp;pressure;altitude;pressure_sealevel;temperature;humidity
35507;BME280;36461;52.018;21.036;2022-08-14T00:00:50;100141.36;;;20.28;86.27
35507;BME280;36461;52.018;21.036;2022-08-14T00:03:29;100148.78;;;20.29;86.38
35507;BME280;36461;52.018;21.036;2022-08-14T00:05:55;100147.00;;;20.29;86.48
35507;BME280;36461;52.018;21.036;2022-08-14T00:08:24;100148.78;;;20.29;86.66
35507;BME280;36461;52.018;21.036;2022-08-14T00:10:51;100146.39;;;20.26;86.77
35507;BME280;36461;52.018;21.036;2022-08-14T00:13:20;100155.86;;;20.23;87.11
35507;BME280;36461;52.018;21.036;2022-08-14T00:15:49;100160.89;;;20.20;87.45
35507;BME280;36461;52.018;21.036;2022-08-14T00:18:19;100143.14;;;20.11;88.10
35507;BME280;36461;52.018;21.036;2022-08-14T00:20:47;100141.90;;;19.98;88.21
35507;BME280;36461;52.018;21.036;2022-08-14T00:23:14;100139.25;;;19.87;88.59
35507;BME280;36461;52.018;21.036;2022-08-14T00:25:45;100137.44;;;19.82;89.05
35507;BME280;36461;52.018;21.036;2022-08-14T00:28:13;100127.56;;;19.78;89.52
35507;BME280;36461;52.018;21.036;2022-08-14T00:30:40;100133.69;;;19.78;89.98
35507;BME280;36461;52.018;21.036;2022-08-14T00:33:07;100128.30;;;19.80;90.19
35507;BME280;36461;52.018;21.036;2022-08-14T00:35:33;100128.80;;;19.79;90.43
35507;BME280;36461;52.018;21.036;2022-08-14T00:37:59;100117.68;;;19.82;90.84
35507;BME280;36461;52.018;21.036;2022-08-14T00:40:27;100111.77;;;19.78;91.06
35507;BME280;36461;52.018;21.036;2022-08-14T00:42:53;100109.13;;;19.78;91.15
35507;BME280;36461;52.018;21.036;2022-08-14T00:45:20;100099.58;;;19.77;91.31
35507;BME280;36461;52.018;21.036;2022-08-14T00:47:47;100102.55;;;19.78;91.56
35507;BME280;36461;52.018;21.036;2022-08-14T00:50:18;100096.33;;;19.79;91.58
35507;BME280;36461;52.018;21.036;2022-08-14T00:52:46;100090.52;;;19.81;91.78
35507;BME280;36461;52.018;21.036;2022-08-14T00:55:14;100086.44;;;19.83;91.90
35507;BME280;36461;52.018;21.036;2022-08-14T00:57:41;100091.09;;;19.85;91.86
35507;BME280;36461;52.018;21.036;2022-08-14T01:00:10;100089.56;;;19.82;91.81
35507;BME280;36461;52.018;21.036;2022-08-14T01:02:43;100094.06;;;19.80;91.95
35507;BME280;36461;52.018;21.036;2022-08-14T01:05:11;100083.16;;;19.79;92.04
35507;BME280;36461;52.018;21.036;2022-08-14T01:07:42;100071.92;;;19.77;92.11
35507;BME280;36461;52.018;21.036;2022-08-14T01:10:09;100065.55;;;19.74;92.09
35507;BME280;36461;52.018;21.036;2022-08-14T01:12:37;100077.87;;;19.68;92.04
35507;BME280;36461;52.018;21.036;2022-08-14T01:15:06;100070.18;;;19.59;92.01
35507;BME280;36461;52.018;21.036;2022-08-14T01:17:34;100074.48;;;19.54;92.17
35507;BME280;36461;52.018;21.036;2022-08-14T01:20:20;100074.56;;;19.47;92.25
35507;BME280;36461;52.018;21.036;2022-08-14T01:23:07;100081.63;;;19.41;92.54
35507;BME280;36461;52.018;21.036;2022-08-14T01:25:35;100078.73;;;19.38;92.88
35507;BME280;36461;52.018;21.036;2022-08-14T01:28:03;100081.00;;;19.37;93.08
35507;BME280;36461;52.018;21.036;2022-08-14T01:30:30;100075.62;;;19.39;93.44
35507;BME280;36461;52.018;21.036;2022-08-14T01:32:57;100081.99;;;19.42;93.71
35507;BME280;36461;52.018;21.036;2022-08-14T01:35:24;100076.00;;;19.45;93.86
35507;BME280;36461;52.018;21.036;2022-08-14T01:37:52;100080.81;;;19.46;93.90
35507;BME280;36461;52.018;21.036;2022-08-14T01:40:21;100087.16;;;19.49;94.10
35507;BME280;36461;52.018;21.036;2022-08-14T01:42:48;100079.50;;;19.52;94.13
35507;BME280;36461;52.018;21.036;2022-08-14T01:45:14;100079.74;;;19.49;93.81
35507;BME280;36461;52.018;21.036;2022-08-14T01:47:40;100081.88;;;19.43;93.86
35507;BME280;36461;52.018;21.036;2022-08-14T01:50:08;100081.02;;;19.43;93.97
35507;BME280;36461;52.018;21.036;2022-08-14T01:52:36;100079.36;;;19.42;94.20
35507;BME280;36461;52.018;21.036;2022-08-14T01:55:05;100081.02;;;19.43;94.33
35507;BME280;36461;52.018;21.036;2022-08-14T01:57:37;100076.48;;;19.45;94.42
35507;BME280;36461;52.018;21.036;2022-08-14T02:00:05;100079.83;;;19.47;94.54
35507;BME280;36461;52.018;21.036;2022-08-14T02:02:34;100073.98;;;19.49;94.56
35507;BME280;36461;52.018;21.036;2022-08-14T02:05:02;100068.15;;;19.51;94.60
35507;BME280;36461;52.018;21.036;2022-08-14T02:07:28;100068.48;;;19.52;94.57
35507;BME280;36461;52.018;21.036;2022-08-14T02:09:57;100063.59;;;19.53;94.58
35507;BME280;36461;52.018;21.036;2022-08-14T02:12:24;100062.27;;;19.53;94.52
35507;BME280;36461;52.018;21.036;2022-08-14T02:14:50;100065.39;;;19.53;94.37
35507;BME280;36461;52.018;21.036;2022-08-14T02:17:16;100061.56;;;19.51;94.43
35507;BME280;36461;52.018;21.036;2022-08-14T02:19:45;100059.88;;;19.50;94.60
35507;BME280;36461;52.018;21.036;2022-08-14T02:22:11;100053.75;;;19.50;94.67
35507;BME280;36461;52.018;21.036;2022-08-14T02:24:37;100062.72;;;19.47;94.52
35507;BME280;36461;52.018;21.036;2022-08-14T02:27:04;100050.66;;;19.44;94.65
35507;BME280;36461;52.018;21.036;2022-08-14T02:29:30;100051.72;;;19.42;94.78
35507;BME280;36461;52.018;21.036;2022-08-14T02:31:59;100050.41;;;19.42;95.07
35507;BME280;36461;52.018;21.036;2022-08-14T02:34:29;100046.55;;;19.40;95.04
35507;BME280;36461;52.018;21.036;2022-08-14T02:37:00;100046.80;;;19.43;95.24
35507;BME280;36461;52.018;21.036;2022-08-14T02:39:29;100039.27;;;19.44;95.22
35507;BME280;36461;52.018;21.036;2022-08-14T02:41:57;100046.34;;;19.43;95.23
35507;BME280;36461;52.018;21.036;2022-08-14T02:44:24;100045.48;;;19.43;95.18
35507;BME280;36461;52.018;21.036;2022-08-14T02:46:53;100046.09;;;19.41;95.23
35507;BME280;36461;52.018;21.036;2022-08-14T02:49:24;100037.83;;;19.40;95.23
35507;BME280;36461;52.018;21.036;2022-08-14T02:51:55;100041.89;;;19.38;95.25
35507;BME280;36461;52.018;21.036;2022-08-14T02:54:23;100038.52;;;19.36;95.36
35507;BME280;36461;52.018;21.036;2022-08-14T02:56:53;100039.95;;;19.35;95.49
35507;BME280;36461;52.018;21.036;2022-08-14T02:59:20;100035.55;;;19.35;95.55
35507;BME280;36461;52.018;21.036;2022-08-14T03:01:49;100041.76;;;19.34;95.56
35507;BME280;36461;52.018;21.036;2022-08-14T03:04:16;100040.45;;;19.34;95.61
35507;BME280;36461;52.018;21.036;2022-08-14T03:06:42;100038.27;;;19.34;95.62
35507;BME280;36461;52.018;21.036;2022-08-14T03:09:10;100040.19;;;19.32;95.50
35507;BME280;36461;52.018;21.036;2022-08-14T03:11:38;100035.17;;;19.28;95.68
35507;BME280;36461;52.018;21.036;2022-08-14T03:14:04;100028.59;;;19.28;95.82
35507;BME280;36461;52.018;21.036;2022-08-14T03:16:31;100021.52;;;19.29;95.85
35507;BME280;36461;52.018;21.036;2022-08-14T03:19:01;100021.03;;;19.29;95.95
35507;BME280;36461;52.018;21.036;2022-08-14T03:21:30;100018.65;;;19.32;96.23
35507;BME280;36461;52.018;21.036;2022-08-14T03:23:57;100021.90;;;19.36;96.32
35507;BME280;36461;52.018;21.036;2022-08-14T03:26:41;100020.95;;;19.37;96.27
35507;BME280;36461;52.018;21.036;2022-08-14T03:29:12;100016.06;;;19.38;96.13
35507;BME280;36461;52.018;21.036;2022-08-14T03:31:39;100023.95;;;19.38;96.12
35507;BME280;36461;52.018;21.036;2022-08-14T03:34:07;100012.11;;;19.38;96.25
35507;BME280;36461;52.018;21.036;2022-08-14T03:36:36;100015.94;;;19.39;96.35
35507;BME280;36461;52.018;21.036;2022-08-14T03:39:07;100012.23;;;19.42;96.45
35507;BME280;36461;52.018;21.036;2022-08-14T03:41:34;100016.06;;;19.43;96.38
35507;BME280;36461;52.018;21.036;2022-08-14T03:44:03;100018.58;;;19.45;96.49
35507;BME280;36461;52.018;21.036;2022-08-14T03:46:35;100012.70;;;19.47;96.41
35507;BME280;36461;52.018;21.036;2022-08-14T03:49:03;100013.94;;;19.49;96.45
35507;BME280;36461;52.018;21.036;2022-08-14T03:51:31;100007.59;;;19.51;96.51
35507;BME280;36461;52.018;21.036;2022-08-14T03:54:01;100014.64;;;19.56;96.69
35507;BME280;36461;52.018;21.036;2022-08-14T03:56:29;100014.19;;;19.62;96.59
35507;BME280;36461;52.018;21.036;2022-08-14T03:58:59;100004.27;;;19.66;96.53
35507;BME280;36461;52.018;21.036;2022-08-14T04:01:30;100007.03;;;19.70;96.45
35507;BME280;36461;52.018;21.036;2022-08-14T04:03:56;100015.05;;;19.74;96.45
35507;BME280;36461;52.018;21.036;2022-08-14T04:06:24;100021.88;;;19.77;96.42
35507;BME280;36461;52.018;21.036;2022-08-14T04:08:50;100018.17;;;19.79;96.46
35507;BME280;36461;52.018;21.036;2022-08-14T04:11:18;100019.03;;;19.86;96.41
35507;BME280;36461;52.018;21.036;2022-08-14T04:13:47;100026.47;;;19.92;96.31
35507;BME280;36461;52.018;21.036;2022-08-14T04:16:19;100019.18;;;19.95;96.14
35507;BME280;36461;52.018;21.036;2022-08-14T04:18:53;100024.20;;;19.99;96.02
35507;BME280;36461;52.018;21.036;2022-08-14T04:21:24;100026.46;;;20.03;96.00
35507;BME280;36461;52.018;21.036;2022-08-14T04:23:54;100033.66;;;20.07;95.91
35507;BME280;36461;52.018;21.036;2022-08-14T04:26:24;100037.48;;;20.08;95.90
35507;BME280;36461;52.018;21.036;2022-08-14T04:28:53;100040.24;;;20.12;95.92
35507;BME280;36461;52.018;21.036;2022-08-14T04:31:21;100040.85;;;20.16;95.96
35507;BME280;36461;52.018;21.036;2022-08-14T04:33:49;100041.34;;;20.21;95.90
35507;BME280;36461;52.018;21.036;2022-08-14T04:36:18;100042.16;;;20.22;95.72
35507;BME280;36461;52.018;21.036;2022-08-14T04:38:45;100044.43;;;20.21;95.59
35507;BME280;36461;52.018;21.036;2022-08-14T04:41:29;100046.37;;;20.19;95.58
35507;BME280;36461;52.018;21.036;2022-08-14T04:44:14;100045.27;;;20.16;95.60
35507;BME280;36461;52.018;21.036;2022-08-14T04:46:41;100045.76;;;20.15;95.65
35507;BME280;36461;52.018;21.036;2022-08-14T04:49:10;100036.28;;;20.18;95.89
35507;BME280;36461;52.018;21.036;2022-08-14T04:51:38;100036.55;;;20.26;95.73
35507;BME280;36461;52.018;21.036;2022-08-14T04:54:04;100046.00;;;20.35;95.83
35507;BME280;36461;52.018;21.036;2022-08-14T04:56:30;100039.27;;;20.42;95.74
35507;BME280;36461;52.018;21.036;2022-08-14T04:59:00;100044.20;;;20.47;95.43
35507;BME280;36461;52.018;21.036;2022-08-14T05:01:29;100047.19;;;20.53;95.50
35507;BME280;36461;52.018;21.036;2022-08-14T05:03:56;100042.48;;;20.57;95.50
35507;BME280;36461;52.018;21.036;2022-08-14T05:06:22;100037.30;;;20.67;95.43
35507;BME280;36461;52.018;21.036;2022-08-14T05:08:50;100040.79;;;20.78;95.47
35507;BME280;36461;52.018;21.036;2022-08-14T05:11:16;100035.84;;;20.97;95.73
35507;BME280;36461;52.018;21.036;2022-08-14T05:13:44;100041.39;;;21.15;95.46
35507;BME280;36461;52.018;21.036;2022-08-14T05:16:11;100040.97;;;21.31;95.02
35507;BME280;36461;52.018;21.036;2022-08-14T05:18:38;100041.02;;;21.46;95.01
35507;BME280;36461;52.018;21.036;2022-08-14T05:21:07;100031.33;;;21.68;94.57
35507;BME280;36461;52.018;21.036;2022-08-14T05:23:37;100032.49;;;21.90;94.21
35507;BME280;36461;52.018;21.036;2022-08-14T05:26:05;100027.93;;;22.02;93.56
35507;BME280;36461;52.018;21.036;2022-08-14T05:28:34;100028.66;;;22.04;93.06
35507;BME280;36461;52.018;21.036;2022-08-14T05:31:06;100024.77;;;22.08;92.45
35507;BME280;36461;52.018;21.036;2022-08-14T05:33:34;100026.67;;;22.12;92.67
35507;BME280;36461;52.018;21.036;2022-08-14T05:36:04;100032.73;;;22.18;92.15
35507;BME280;36461;52.018;21.036;2022-08-14T05:38:35;100033.42;;;22.10;91.67
35507;BME280;36461;52.018;21.036;2022-08-14T05:41:04;100029.92;;;22.10;91.88
35507;BME280;36461;52.018;21.036;2022-08-14T05:43:33;100038.52;;;22.18;92.07
35507;BME280;36461;52.018;21.036;2022-08-14T05:46:00;100032.89;;;22.26;91.98
35507;BME280;36461;52.018;21.036;2022-08-14T05:48:28;100032.64;;;22.45;91.60
35507;BME280;36461;52.018;21.036;2022-08-14T05:50:55;100027.65;;;22.52;91.50
35507;BME280;36461;52.018;21.036;2022-08-14T05:53:23;100029.02;;;22.61;90.63
35507;BME280;36461;52.018;21.036;2022-08-14T05:55:52;100027.72;;;22.56;90.13
35507;BME280;36461;52.018;21.036;2022-08-14T05:58:21;100026.16;;;22.59;90.31
35507;BME280;36461;52.018;21.036;2022-08-14T06:00:48;100022.80;;;22.67;90.04
35507;BME280;36461;52.018;21.036;2022-08-14T06:03:21;100021.30;;;22.74;89.92
35507;BME280;36461;52.018;21.036;2022-08-14T06:05:47;100027.42;;;22.84;90.08
35507;BME280;36461;52.018;21.036;2022-08-14T06:08:27;100026.20;;;22.98;90.13
35507;BME280;36461;52.018;21.036;2022-08-14T06:10:59;100029.29;;;23.13;90.11
35507;BME280;36461;52.018;21.036;2022-08-14T06:13:32;100022.93;;;23.29;89.50
35507;BME280;36461;52.018;21.036;2022-08-14T06:16:00;100027.86;;;23.48;89.53
35507;BME280;36461;52.018;21.036;2022-08-14T06:18:26;100017.91;;;23.70;88.84
35507;BME280;36461;52.018;21.036;2022-08-14T06:20:52;100016.83;;;23.62;88.08
35507;BME280;36461;52.018;21.036;2022-08-14T06:23:19;100011.27;;;23.56;87.78
35507;BME280;36461;52.018;21.036;2022-08-14T06:25:45;100010.88;;;23.41;87.13
35507;BME280;36461;52.018;21.036;2022-08-14T06:28:23;100021.61;;;23.29;87.55
35507;BME280;36461;52.018;21.036;2022-08-14T06:30:48;100023.22;;;23.26;87.52
35507;BME280;36461;52.018;21.036;2022-08-14T06:33:17;100020.30;;;23.20;87.46
35507;BME280;36461;52.018;21.036;2022-08-14T06:35:46;100025.58;;;23.29;88.30
35507;BME280;36461;52.018;21.036;2022-08-14T06:38:16;100022.36;;;23.45;88.11
35507;BME280;36461;52.018;21.036;2022-08-14T06:40:48;100015.26;;;23.70;88.54
35507;BME280;36461;52.018;21.036;2022-08-14T06:43:17;100018.55;;;24.01;87.46
35507;BME280;36461;52.018;21.036;2022-08-14T06:45:47;100021.70;;;24.15;87.28
35507;BME280;36461;52.018;21.036;2022-08-14T06:48:20;100022.81;;;24.40;86.83
35507;BME280;36461;52.018;21.036;2022-08-14T06:50:45;100026.41;;;24.49;85.23
35507;BME280;36461;52.018;21.036;2022-08-14T06:53:13;100026.94;;;24.38;85.03
35507;BME280;36461;52.018;21.036;2022-08-14T06:55:43;100028.52;;;24.45;84.88
35507;BME280;36461;52.018;21.036;2022-08-14T06:58:11;100030.11;;;24.66;85.66
35507;BME280;36461;52.018;21.036;2022-08-14T07:00:40;100031.60;;;24.82;84.67
35507;BME280;36461;52.018;21.036;2022-08-14T07:03:09;100030.00;;;24.89;84.06
35507;BME280;36461;52.018;21.036;2022-08-14T07:05:54;100036.64;;;24.89;83.50
35507;BME280;36461;52.018;21.036;2022-08-14T07:08:29;100036.55;;;24.99;83.30
35507;BME280;36461;52.018;21.036;2022-08-14T07:11:01;100037.60;;;25.02;82.94
35507;BME280;36461;52.018;21.036;2022-08-14T07:13:25;100039.09;;;25.01;82.94
35507;BME280;36461;52.018;21.036;2022-08-14T07:15:55;100034.95;;;25.02;82.57
35507;BME280;36461;52.018;21.036;2022-08-14T07:18:27;100038.77;;;25.04;81.76
35507;BME280;36461;52.018;21.036;2022-08-14T07:20:56;100042.79;;;25.08;81.92
35507;BME280;36461;52.018;21.036;2022-08-14T07:23:23;100036.59;;;25.21;82.21
35507;BME280;36461;52.018;21.036;2022-08-14T07:25:54;100037.58;;;25.34;81.30
35507;BME280;36461;52.018;21.036;2022-08-14T07:28:27;100033.33;;;25.45;81.46
35507;BME280;36461;52.018;21.036;2022-08-14T07:30:58;100036.41;;;25.59;81.09
35507;BME280;36461;52.018;21.036;2022-08-14T07:33:28;100036.58;;;25.57;79.75
35507;BME280;36461;52.018;21.036;2022-08-14T07:35:59;100033.89;;;25.53;79.29
35507;BME280;36461;52.018;21.036;2022-08-14T07:38:27;100033.75;;;25.59;79.37
35507;BME280;36461;52.018;21.036;2022-08-14T07:40:55;100036.59;;;25.61;79.39
35507;BME280;36461;52.018;21.036;2022-08-14T07:43:24;100034.08;;;25.56;79.22
35507;BME280;36461;52.018;21.036;2022-08-14T07:45:50;100028.02;;;25.45;79.08
35507;BME280;36461;52.018;21.036;2022-08-14T07:48:17;100034.70;;;25.32;78.78
35507;BME280;36461;52.018;21.036;2022-08-14T07:50:44;100033.09;;;25.17;79.19
35507;BME280;36461;52.018;21.036;2022-08-14T07:53:14;100039.28;;;25.03;79.02
35507;BME280;36461;52.018;21.036;2022-08-14T07:55:42;100039.45;;;24.88;78.19
35507;BME280;36461;52.018;21.036;2022-08-14T07:58:11;100034.02;;;24.75;79.21
35507;BME280;36461;52.018;21.036;2022-08-14T08:00:39;100027.08;;;24.78;78.94
35507;BME280;36461;52.018;21.036;2022-08-14T08:03:07;100032.27;;;24.66;78.95
35507;BME280;36461;52.018;21.036;2022-08-14T08:05:38;100038.13;;;24.60;79.62
35507;BME280;36461;52.018;21.036;2022-08-14T08:08:06;100037.61;;;24.70;80.23
35507;BME280;36461;52.018;21.036;2022-08-14T08:10:34;100034.69;;;24.91;80.10
35507;BME280;36461;52.018;21.036;2022-08-14T08:13:11;100038.05;;;25.16;79.60
35507;BME280;36461;52.018;21.036;2022-08-14T08:15:44;100042.38;;;25.35;79.51
35507;BME280;36461;52.018;21.036;2022-08-14T08:18:13;100034.63;;;25.41;78.52
35507;BME280;36461;52.018;21.036;2022-08-14T08:20:48;100037.52;;;25.30;77.50
35507;BME280;36461;52.018;21.036;2022-08-14T08:23:13;100035.23;;;25.17;78.07
35507;BME280;36461;52.018;21.036;2022-08-14T08:25:42;100032.77;;;25.02;77.32
35507;BME280;36461;52.018;21.036;2022-08-14T08:28:13;100030.61;;;25.01;77.93
35507;BME280;36461;52.018;21.036;2022-08-14T08:30:50;100030.20;;;25.10;78.20
35507;BME280;36461;52.018;21.036;2022-08-14T08:33:25;100036.69;;;25.11;78.13
35507;BME280;36461;52.018;21.036;2022-08-14T08:35:58;100039.19;;;25.13;78.20
35507;BME280;36461;52.018;21.036;2022-08-14T08:38:26;100032.90;;;25.14;78.14
35507;BME280;36461;52.018;21.036;2022-08-14T08:40:55;100034.51;;;25.11;78.10
35507;BME280;36461;52.018;21.036;2022-08-14T08:43:28;100041.15;;;25.11;78.63
35507;BME280;36461;52.018;21.036;2022-08-14T08:51:23;100036.36;;;25.51;78.60
35507;BME280;36461;52.018;21.036;2022-08-14T08:54:07;100043.06;;;25.59;77.23
35507;BME280;36461;52.018;21.036;2022-08-14T08:56:43;100036.01;;;25.72;76.98
35507;BME280;36461;52.018;21.036;2022-08-14T08:59:29;100040.50;;;25.75;76.21
35507;BME280;36461;52.018;21.036;2022-08-14T09:01:59;100039.21;;;25.84;76.20
35507;BME280;36461;52.018;21.036;2022-08-14T09:04:33;100035.16;;;25.98;76.17
35507;BME280;36461;52.018;21.036;2022-08-14T09:07:00;100036.75;;;26.12;75.69
35507;BME280;36461;52.018;21.036;2022-08-14T09:09:29;100033.69;;;26.34;75.77
35507;BME280;36461;52.018;21.036;2022-08-14T09:11:58;100034.72;;;26.49;74.66
35507;BME280;36461;52.018;21.036;2022-08-14T09:14:27;100031.91;;;26.59;74.18
35507;BME280;36461;52.018;21.036;2022-08-14T09:16:57;100032.77;;;26.63;73.85
35507;BME280;36461;52.018;21.036;2022-08-14T09:19:26;100031.49;;;26.84;73.21
35507;BME280;36461;52.018;21.036;2022-08-14T09:21:53;100032.83;;;26.96;72.92
35507;BME280;36461;52.018;21.036;2022-08-14T09:24:20;100033.17;;;27.10;72.73
35507;BME280;36461;52.018;21.036;2022-08-14T09:26:47;100020.37;;;27.34;72.66
35507;BME280;36461;52.018;21.036;2022-08-14T09:29:14;100018.20;;;27.46;71.53
35507;BME280;36461;52.018;21.036;2022-08-14T09:31:47;100023.02;;;27.63;70.92
35507;BME280;36461;52.018;21.036;2022-08-14T09:40:35;100020.19;;;27.19;70.44
35507;BME280;36461;52.018;21.036;2022-08-14T09:43:13;100020.20;;;27.03;70.36
35507;BME280;36461;52.018;21.036;2022-08-14T09:45:46;100018.52;;;27.02;71.29
35507;BME280;36461;52.018;21.036;2022-08-14T09:48:18;100020.53;;;26.95;71.54
35507;BME280;36461;52.018;21.036;2022-08-14T09:50:54;100015.86;;;26.85;71.31
35507;BME280;36461;52.018;21.036;2022-08-14T09:53:47;100016.19;;;26.74;71.85
35507;BME280;36461;52.018;21.036;2022-08-14T09:56:10;100013.70;;;26.85;72.14
35507;BME280;36461;52.018;21.036;2022-08-14T09:58:39;100004.20;;;27.19;71.74
35507;BME280;36461;52.018;21.036;2022-08-14T10:01:10;100005.72;;;27.51;71.31
35507;BME280;36461;52.018;21.036;2022-08-14T10:03:47;100000.66;;;27.76;70.18
35507;BME280;36461;52.018;21.036;2022-08-14T10:06:25;99994.43;;;28.01;68.72
35507;BME280;36461;52.018;21.036;2022-08-14T10:09:04;99993.92;;;28.01;68.59
35507;BME280;36461;52.018;21.036;2022-08-14T10:11:36;99997.60;;;27.96;67.51
35507;BME280;36461;52.018;21.036;2022-08-14T10:14:18;99989.66;;;27.71;67.78
35507;BME280;36461;52.018;21.036;2022-08-14T10:16:51;99980.55;;;27.53;67.78
35507;BME280;36461;52.018;21.036;2022-08-14T10:19:23;99986.73;;;27.29;68.11
35507;BME280;36461;52.018;21.036;2022-08-14T10:22:01;99983.73;;;27.20;68.78
35507;BME280;36461;52.018;21.036;2022-08-14T10:24:38;99979.91;;;27.26;69.15
35507;BME280;36461;52.018;21.036;2022-08-14T10:27:17;99976.71;;;27.48;68.75
35507;BME280;36461;52.018;21.036;2022-08-14T10:29:53;99968.00;;;27.66;68.90
35507;BME280;36461;52.018;21.036;2022-08-14T10:32:22;99975.47;;;27.83;69.01
35507;BME280;36461;52.018;21.036;2022-08-14T10:34:49;99976.78;;;27.87;68.46
35507;BME280;36461;52.018;21.036;2022-08-14T10:37:17;99972.97;;;27.82;68.32
35507;BME280;36461;52.018;21.036;2022-08-14T10:39:58;99973.48;;;27.73;67.39
35507;BME280;36461;52.018;21.036;2022-08-14T10:42:37;99970.16;;;27.75;67.77
35507;BME280;36461;52.018;21.036;2022-08-14T10:45:20;99975.75;;;27.96;67.33
35507;BME280;36461;52.018;21.036;2022-08-14T10:47:49;99972.62;;;27.85;66.77
35507;BME280;36461;52.018;21.036;2022-08-14T10:50:29;99973.16;;;27.68;66.71
35507;BME280;36461;52.018;21.036;2022-08-14T10:53:01;99969.03;;;27.65;66.98
35507;BME280;36461;52.018;21.036;2022-08-14T10:55:33;99978.55;;;27.47;66.00
35507;BME280;36461;52.018;21.036;2022-08-14T10:58:03;99970.23;;;27.29;66.31
35507;BME280;36461;52.018;21.036;2022-08-14T11:00:29;99969.08;;;27.20;66.83
35507;BME280;36461;52.018;21.036;2022-08-14T11:02:59;99970.92;;;26.94;66.08
35507;BME280;36461;52.018;21.036;2022-08-14T11:05:45;99963.37;;;26.69;66.75
35507;BME280;36461;52.018;21.036;2022-08-14T11:08:17;99958.91;;;26.70;67.36
35507;BME280;36461;52.018;21.036;2022-08-14T11:10:48;99959.93;;;26.81;67.89
35507;BME280;36461;52.018;21.036;2022-08-14T11:13:19;99958.11;;;27.02;68.73
35507;BME280;36461;52.018;21.036;2022-08-14T11:15:47;99959.44;;;27.06;68.14
35507;BME280;36461;52.018;21.036;2022-08-14T11:18:16;99962.58;;;27.02;68.61
35507;BME280;36461;52.018;21.036;2022-08-14T11:20:51;99958.92;;;27.07;68.78
35507;BME280;36461;52.018;21.036;2022-08-14T11:23:27;99960.74;;;27.23;68.56
35507;BME280;36461;52.018;21.036;2022-08-14T11:26:01;99947.59;;;27.38;68.74
35507;BME280;36461;52.018;21.036;2022-08-14T11:28:27;99945.21;;;27.55;68.54
35507;BME280;36461;52.018;21.036;2022-08-14T11:30:56;99947.77;;;27.88;69.00
35507;BME280;36461;52.018;21.036;2022-08-14T11:33:26;99941.36;;;28.10;67.27
35507;BME280;36461;52.018;21.036;2022-08-14T11:35:58;99943.60;;;28.29;66.62
35507;BME280;36461;52.018;21.036;2022-08-14T11:38:27;99941.55;;;28.36;66.56
35507;BME280;36461;52.018;21.036;2022-08-14T11:41:03;99941.13;;;28.20;65.04
35507;BME280;36461;52.018;21.036;2022-08-14T11:43:31;99943.21;;;28.09;65.48
35507;BME280;36461;52.018;21.036;2022-08-14T11:46:00;99947.90;;;28.03;65.37
35507;BME280;36461;52.018;21.036;2022-08-14T11:48:26;99942.28;;;27.86;65.38
35507;BME280;36461;52.018;21.036;2022-08-14T11:50:54;99952.72;;;27.60;65.59
35507;BME280;36461;52.018;21.036;2022-08-14T11:53:26;99948.59;;;27.45;66.57
35507;BME280;36461;52.018;21.036;2022-08-14T11:55:59;99952.41;;;27.26;66.64
35507;BME280;36461;52.018;21.036;2022-08-14T11:58:34;99952.77;;;27.10;67.17
35507;BME280;36461;52.018;21.036;2022-08-14T12:01:06;99948.27;;;27.07;67.48
35507;BME280;36461;52.018;21.036;2022-08-14T12:03:39;99942.30;;;27.01;67.90
35507;BME280;36461;52.018;21.036;2022-08-14T12:06:14;99943.28;;;27.08;67.89
35507;BME280;36461;52.018;21.036;2022-08-14T12:08:42;99933.91;;;27.33;67.80
35507;BME280;36461;52.018;21.036;2022-08-14T12:11:13;99931.25;;;27.49;67.25
35507;BME280;36461;52.018;21.036;2022-08-14T12:13:41;99933.48;;;27.73;66.82
35507;BME280;36461;52.018;21.036;2022-08-14T12:16:12;99924.70;;;28.00;67.45
35507;BME280;36461;52.018;21.036;2022-08-14T12:18:43;99923.58;;;28.25;66.47
35507;BME280;36461;52.018;21.036;2022-08-14T12:21:18;99927.31;;;28.43;66.20
35507;BME280;36461;52.018;21.036;2022-08-14T12:23:48;99934.20;;;28.61;65.51
35507;BME280;36461;52.018;21.036;2022-08-14T12:26:32;99928.74;;;28.54;64.22
35507;BME280;36461;52.018;21.036;2022-08-14T12:29:12;99929.29;;;28.45;64.14
35507;BME280;36461;52.018;21.036;2022-08-14T12:31:42;99931.16;;;28.18;63.62
35507;BME280;36461;52.018;21.036;2022-08-14T12:34:12;99926.44;;;27.88;63.79
35507;BME280;36461;52.018;21.036;2022-08-14T12:36:40;99920.06;;;27.54;64.01
35507;BME280;36461;52.018;21.036;2022-08-14T12:39:21;99924.10;;;27.41;64.67
35507;BME280;36461;52.018;21.036;2022-08-14T12:41:49;99920.10;;;27.41;65.17
35507;BME280;36461;52.018;21.036;2022-08-14T12:44:34;99912.58;;;27.33;65.22
35507;BME280;36461;52.018;21.036;2022-08-14T12:47:13;99920.97;;;27.13;65.41
35507;BME280;36461;52.018;21.036;2022-08-14T12:49:50;99920.14;;;26.96;65.99
35507;BME280;36461;52.018;21.036;2022-08-14T12:52:33;99916.16;;;26.84;66.42
35507;BME280;36461;52.018;21.036;2022-08-14T12:55:09;99911.66;;;26.76;66.55
35507;BME280;36461;52.018;21.036;2022-08-14T12:57:41;99915.01;;;26.74;66.54
35507;BME280;36461;52.018;21.036;2022-08-14T13:00:17;99909.66;;;26.70;66.49
35507;BME280;36461;52.018;21.036;2022-08-14T13:02:41;99902.00;;;26.75;66.63
35507;BME280;36461;52.018;21.036;2022-08-14T13:05:10;99910.67;;;26.77;66.83
35507;BME280;36461;52.018;21.036;2022-08-14T13:07:38;99906.67;;;26.85;67.13
35507;BME280;36461;52.018;21.036;2022-08-14T13:10:08;99897.02;;;27.01;67.51